Time;durP1;ratioP1;P1;durP2;ratioP2;P2;SDS_P1;SDS_P2;PMS_P1;PMS_P2;Temp;Humidity;BMP_temperature;BMP_pressure;BME280_temperature;BME280_humidity;BME280_pressure;Samples;Min_cycle;Max_cycle;Signal;HPM_P1;HPM_P2
2023/12/06 00:01:27;;;;;;;;;;;;;;;0.47;100.00;100965.22;5055508;28;20366;-75
2023/12/06 00:03:52;;;;;;;;;;;;;;;0.47;100.00;100967.78;5032369;28;19929;-75
2023/12/06 00:06:17;;;;;;;;;;;;;;;0.49;100.00;100971.31;5036060;28;19964;-76
2023/12/06 00:08:44;;;;;;;;;;;;;;;0.55;100.00;100976.66;5052474;28;19916;-75
2023/12/06 00:11:09;;;;;;;;;;;;;;;0.58;100.00;100976.75;5043888;28;19966;-75
2023/12/06 00:13:34;;;;;;;;;;;;;;;0.60;100.00;100980.22;5072046;28;20339;-75
2023/12/06 00:16:00;;;;;;;;;;;;;;;0.58;100.00;100978.44;5044859;28;20400;-75
2023/12/06 00:18:26;;;;;;;;;;;;;;;0.57;100.00;100976.69;5065933;28;19929;-76
2023/12/06 00:20:51;;;;;;;;;;;;;;;0.58;100.00;100976.75;5049381;28;19927;-75
2023/12/06 00:23:16;;;;;;;;;;;;;;;0.68;100.00;100980.47;5071250;28;19928;-75
2023/12/06 00:25:41;;;;;;;;;;;;;;;0.61;100.00;100981.97;5033928;28;19935;-75
2023/12/06 00:28:07;;;;;;;;;;;;;;;0.64;100.00;100982.06;5037686;28;19927;-75
2023/12/06 00:30:32;;;;;;;;;;;;;;;0.63;100.00;100982.03;5035559;28;20427;-75
2023/12/06 00:33:00;;;;;;;;;;;;;;;0.64;100.00;100988.94;5037455;28;20285;-75
2023/12/06 00:35:25;;;;;;;;;;;;;;;0.62;100.00;100993.19;5055347;28;20285;-75
2023/12/06 00:37:50;;;;;;;;;;;;;;;0.68;100.00;100994.25;5060691;28;19925;-75
2023/12/06 00:40:16;;;;;;;;;;;;;;;0.67;100.00;101000.22;5030236;28;20172;-75
2023/12/06 00:42:42;;;;;;;;;;;;;;;0.69;100.00;101002.88;5033103;28;20408;-75
2023/12/06 00:45:07;;;;;;;;;;;;;;;0.75;100.00;101000.47;5038888;28;20022;-75
2023/12/06 00:47:33;;;;;;;;;;;;;;;0.74;100.00;101011.63;5037763;28;20282;-75
2023/12/06 00:49:58;;;;;;;;;;;;;;;0.69;100.00;101008.91;5036638;28;19924;-75
2023/12/06 00:52:23;;;;;;;;;;;;;;;0.70;100.00;101020.09;5033296;28;20344;-76
2023/12/06 00:54:49;;;;;;;;;;;;;;;0.80;100.00;101018.66;5051943;28;19920;-75
2023/12/06 00:57:14;;;;;;;;;;;;;;;0.73;100.00;101021.88;5030666;28;19936;-74
2023/12/06 00:59:40;;;;;;;;;;;;;;;0.69;100.00;101024.38;5031514;28;19952;-76
2023/12/06 01:02:05;;;;;;;;;;;;;;;0.71;100.00;101026.13;5055201;28;19939;-75
2023/12/06 01:04:30;;;;;;;;;;;;;;;0.71;100.00;101024.44;5048911;28;20301;-76
2023/12/06 01:06:56;;;;;;;;;;;;;;;0.76;100.00;101029.72;5019218;28;19924;-76
2023/12/06 01:09:21;;;;;;;;;;;;;;;0.72;100.00;101039.09;5040788;28;19917;-76
2023/12/06 01:11:46;;;;;;;;;;;;;;;0.68;100.00;101038.09;5020613;28;20433;-76
2023/12/06 01:14:11;;;;;;;;;;;;;;;0.75;100.00;101038.28;5043336;28;20023;-75
2023/12/06 01:16:37;;;;;;;;;;;;;;;0.69;100.00;101039.84;5047829;28;20336;-76
2023/12/06 01:19:02;;;;;;;;;;;;;;;0.71;100.00;101041.63;5031870;28;19928;-76
2023/12/06 01:21:28;;;;;;;;;;;;;;;0.68;100.00;101051.00;5035911;28;20018;-76
2023/12/06 01:23:54;;;;;;;;;;;;;;;0.67;100.00;101049.22;5051718;28;19920;-76
2023/12/06 01:26:19;;;;;;;;;;;;;;;0.69;100.00;101052.75;5037685;28;19921;-76
2023/12/06 01:28:44;;;;;;;;;;;;;;;0.69;100.00;101055.34;5028862;28;19944;-76
2023/12/06 01:31:10;;;;;;;;;;;;;;;0.72;100.00;101056.25;5053406;28;20045;-76
2023/12/06 01:33:36;;;;;;;;;;;;;;;0.71;100.00;101054.50;5052665;28;19964;-75
2023/12/06 01:36:01;;;;;;;;;;;;;;;0.75;100.00;101064.06;5037389;28;20104;-76
2023/12/06 01:38:28;;;;;;;;;;;;;;;0.75;100.00;101064.06;5054567;28;20424;-76
2023/12/06 01:40:53;;;;;;;;;;;;;;;0.74;100.00;101068.38;5033549;28;20338;-75
2023/12/06 01:43:18;;;;;;;;;;;;;;;0.72;100.00;101066.56;5028679;28;19975;-76
2023/12/06 01:45:44;;;;;;;;;;;;;;;0.77;100.00;101065.00;5034764;28;20305;-76
2023/12/06 01:48:10;;;;;;;;;;;;;;;0.73;100.00;101070.91;5037406;28;19920;-76
2023/12/06 01:50:36;;;;;;;;;;;;;;;0.71;100.00;101072.56;5034594;28;19921;-76
2023/12/06 01:53:04;;;;;;;;;;;;;;;0.72;100.00;101071.72;5052927;28;19917;-76
2023/12/06 01:55:32;;;;;;;;;;;;;;;0.72;100.00;101082.03;5030725;28;19921;-76
2023/12/06 01:57:58;;;;;;;;;;;;;;;0.72;100.00;101092.34;5035893;28;19917;-76
2023/12/06 02:00:24;;;;;;;;;;;;;;;0.72;100.00;101080.34;5037386;28;19924;-75
2023/12/06 02:02:50;;;;;;;;;;;;;;;0.75;100.00;101084.72;5050604;28;19929;-76
2023/12/06 02:05:15;;;;;;;;;;;;;;;0.73;100.00;101087.25;5032502;28;19924;-76
2023/12/06 02:07:44;;;;;;;;;;;;;;;0.75;100.00;101090.78;5053909;28;19920;-76
2023/12/06 02:10:09;;;;;;;;;;;;;;;0.75;100.00;101095.03;5052563;28;20281;-76
2023/12/06 02:12:35;;;;;;;;;;;;;;;0.74;100.00;101088.13;5034589;28;19931;-75
2023/12/06 02:15:01;;;;;;;;;;;;;;;0.74;100.00;101088.13;5036120;28;19916;-76
2023/12/06 02:17:27;;;;;;;;;;;;;;;0.75;100.00;101087.28;5052675;28;20381;-76
2023/12/06 02:19:53;;;;;;;;;;;;;;;0.76;100.00;101101.94;5047476;28;19975;-76
2023/12/06 02:22:18;;;;;;;;;;;;;;;0.77;100.00;101093.38;5046197;28;20373;-76
2023/12/06 02:24:46;;;;;;;;;;;;;;;0.77;100.00;101104.56;5037481;28;19968;-76
2023/12/06 02:27:11;;;;;;;;;;;;;;;0.76;100.00;101097.69;5046073;28;20038;-76
2023/12/06 02:29:37;;;;;;;;;;;;;;;0.76;100.00;101101.94;5030471;28;19960;-76
2023/12/06 02:32:03;;;;;;;;;;;;;;;0.76;100.00;101101.94;5052885;28;19920;-76
2023/12/06 02:34:29;;;;;;;;;;;;;;;0.76;100.00;101091.63;5037268;28;19920;-76
2023/12/06 02:36:59;;;;;;;;;;;;;;;0.76;100.00;101096.78;5036275;28;19924;-76
2023/12/06 02:39:27;;;;;;;;;;;;;;;0.77;100.00;101108.88;5046808;28;19924;-75
2023/12/06 02:41:52;;;;;;;;;;;;;;;0.77;100.00;101108.88;5044291;28;20316;-75
2023/12/06 02:44:18;;;;;;;;;;;;;;;0.76;100.00;101105.44;5028939;28;19928;-76
2023/12/06 02:46:43;;;;;;;;;;;;;;;0.79;100.00;101114.94;5020678;28;19928;-76
2023/12/06 02:49:09;;;;;;;;;;;;;;;0.77;100.00;101101.13;5046586;28;19923;-76
2023/12/06 02:51:34;;;;;;;;;;;;;;;0.76;100.00;101102.84;5020636;28;19928;-76
2023/12/06 02:53:59;;;;;;;;;;;;;;;0.76;100.00;101102.84;5033682;28;19931;-75
2023/12/06 02:56:25;;;;;;;;;;;;;;;0.76;100.00;101102.84;5067303;28;19924;-75
2023/12/06 02:58:50;;;;;;;;;;;;;;;0.76;100.00;101107.09;5068793;28;19925;-76
2023/12/06 03:01:15;;;;;;;;;;;;;;;0.76;100.00;101112.28;5035960;28;19928;-76
2023/12/06 03:03:40;;;;;;;;;;;;;;;0.75;100.00;101115.66;5064636;28;20011;-76
2023/12/06 03:06:06;;;;;;;;;;;;;;;0.76;100.00;101112.28;5025796;28;20006;-76
2023/12/06 03:08:32;;;;;;;;;;;;;;;0.76;100.00;101120.00;5066008;28;19920;-76
2023/12/06 03:10:57;;;;;;;;;;;;;;;0.75;100.00;101113.97;5053633;28;19928;-76
2023/12/06 03:13:23;;;;;;;;;;;;;;;0.75;100.00;101110.50;5028984;28;19920;-76
2023/12/06 03:15:48;;;;;;;;;;;;;;;0.77;100.00;101111.44;5032633;28;19927;-76
2023/12/06 03:18:13;;;;;;;;;;;;;;;0.77;100.00;101098.56;5041362;28;20293;-75
2023/12/06 03:20:38;;;;;;;;;;;;;;;0.76;100.00;101108.00;5020483;28;19948;-76
2023/12/06 03:23:04;;;;;;;;;;;;;;;0.77;100.00;101114.91;5049368;28;19986;-75
2023/12/06 03:25:29;;;;;;;;;;;;;;;0.79;100.00;101107.19;5049460;28;19916;-75
2023/12/06 03:27:55;;;;;;;;;;;;;;;0.79;100.00;101110.69;5068928;28;19924;-76
2023/12/06 03:30:20;;;;;;;;;;;;;;;0.80;100.00;101109.84;5052321;28;20446;-76
2023/12/06 03:32:46;;;;;;;;;;;;;;;0.82;100.00;101120.19;5042151;28;20398;-76
2023/12/06 03:35:11;;;;;;;;;;;;;;;0.84;100.00;101124.59;5050328;28;19929;-75
2023/12/06 03:37:37;;;;;;;;;;;;;;;0.85;100.00;101128.06;5024457;28;19985;-75
2023/12/06 03:40:02;;;;;;;;;;;;;;;0.85;100.00;101125.50;5025883;28;19921;-76
2023/12/06 03:42:27;;;;;;;;;;;;;;;0.88;100.00;101130.75;5038320;28;20017;-75
2023/12/06 03:44:53;;;;;;;;;;;;;;;0.90;100.00;101139.38;5034393;28;19921;-76
2023/12/06 03:47:18;;;;;;;;;;;;;;;0.91;100.00;101138.56;5034439;28;20408;-75
2023/12/06 03:49:43;;;;;;;;;;;;;;;0.94;100.00;101138.66;5036195;28;19924;-75
2023/12/06 03:52:11;;;;;;;;;;;;;;;0.96;100.00;101139.63;5068217;28;19921;-76
2023/12/06 03:54:36;;;;;;;;;;;;;;;0.96;100.00;101144.78;5048381;28;19924;-76
2023/12/06 03:57:01;;;;;;;;;;;;;;;0.99;100.00;101142.28;5032830;28;19917;-76
2023/12/06 03:59:27;;;;;;;;;;;;;;;1.02;100.00;101147.53;5040054;28;19948;-76
2023/12/06 04:01:53;;;;;;;;;;;;;;;1.04;100.00;101151.03;5055914;28;19916;-76
2023/12/06 04:04:18;;;;;;;;;;;;;;;1.06;100.00;101152.81;5039823;28;20304;-76
2023/12/06 04:06:43;;;;;;;;;;;;;;;1.08;100.00;101146.88;5050466;28;19943;-76
2023/12/06 04:09:10;;;;;;;;;;;;;;;1.10;100.00;101146.91;5033899;28;19928;-76
2023/12/06 04:11:36;;;;;;;;;;;;;;;1.11;100.00;101152.13;5037181;28;19925;-76
2023/12/06 04:14:03;;;;;;;;;;;;;;;1.12;100.00;101156.47;5041601;28;20267;-76
2023/12/06 04:16:31;;;;;;;;;;;;;;;1.15;100.00;101155.66;5039122;28;19920;-76
2023/12/06 04:18:57;;;;;;;;;;;;;;;1.16;100.00;101163.44;5030672;28;19978;-76
2023/12/06 04:21:22;;;;;;;;;;;;;;;1.19;100.00;101162.69;5020406;28;19921;-76
2023/12/06 04:23:48;;;;;;;;;;;;;;;1.21;100.00;101166.19;5036470;28;19925;-76
2023/12/06 04:26:16;;;;;;;;;;;;;;;1.25;100.00;101159.41;5055579;28;19916;-75
2023/12/06 04:28:42;;;;;;;;;;;;;;;1.23;100.00;101158.50;5043127;28;19916;-75
2023/12/06 04:31:07;;;;;;;;;;;;;;;1.25;100.00;101169.75;5039186;28;19982;-75
2023/12/06 04:33:32;;;;;;;;;;;;;;;1.25;100.00;101165.47;5038613;28;19920;-75
2023/12/06 04:35:57;;;;;;;;;;;;;;;1.28;100.00;101168.16;5036782;28;19955;-76
2023/12/06 04:38:23;;;;;;;;;;;;;;;1.28;100.00;101168.16;5039058;28;19912;-75
2023/12/06 04:40:48;;;;;;;;;;;;;;;1.30;100.00;101175.94;5072501;28;19916;-75
2023/12/06 04:43:16;;;;;;;;;;;;;;;1.30;100.00;101176.81;5069275;28;20298;-75
2023/12/06 04:45:41;;;;;;;;;;;;;;;1.33;100.00;101183.78;5053767;28;19916;-76
2023/12/06 04:48:07;;;;;;;;;;;;;;;1.34;100.00;101180.38;5038901;28;19943;-76
2023/12/06 04:50:32;;;;;;;;;;;;;;;1.36;100.00;101189.91;5020315;28;19916;-75
2023/12/06 04:52:57;;;;;;;;;;;;;;;1.37;100.00;101180.47;5044188;28;19917;-76
2023/12/06 04:55:22;;;;;;;;;;;;;;;1.38;100.00;101183.09;5050516;28;20397;-75
2023/12/06 04:57:48;;;;;;;;;;;;;;;1.37;100.00;101180.47;5054947;28;20009;-76
2023/12/06 05:00:13;;;;;;;;;;;;;;;1.37;100.00;101181.34;5054948;28;20298;-75
2023/12/06 05:02:39;;;;;;;;;;;;;;;1.39;100.00;101186.53;5029575;28;19970;-75
2023/12/06 05:05:04;;;;;;;;;;;;;;;1.38;100.00;101185.69;5024826;28;19921;-75
2023/12/06 05:07:29;;;;;;;;;;;;;;;1.41;100.00;101196.91;5029590;28;20011;-75
2023/12/06 05:09:55;;;;;;;;;;;;;;;1.39;100.00;101189.13;5050860;28;19947;-75
2023/12/06 05:12:20;;;;;;;;;;;;;;;1.40;100.00;101187.44;5068054;28;19978;-75
2023/12/06 05:14:45;;;;;;;;;;;;;;;1.41;100.00;101194.34;5052776;28;20289;-76
2023/12/06 05:17:11;;;;;;;;;;;;;;;1.42;100.00;101203.84;5018696;28;19943;-75
2023/12/06 05:19:36;;;;;;;;;;;;;;;1.38;100.00;101193.44;5061089;28;20032;-75
2023/12/06 05:22:01;;;;;;;;;;;;;;;1.38;100.00;101198.59;5035448;28;19978;-75
2023/12/06 05:24:27;;;;;;;;;;;;;;;1.39;100.00;101196.88;5027809;28;19925;-76
2023/12/06 05:26:52;;;;;;;;;;;;;;;1.40;100.00;101202.94;5054321;28;19970;-75
2023/12/06 05:29:17;;;;;;;;;;;;;;;1.41;100.00;101204.66;5038343;28;19986;-75
2023/12/06 05:31:43;;;;;;;;;;;;;;;1.42;100.00;101207.28;5070666;28;19958;-76
2023/12/06 05:34:09;;;;;;;;;;;;;;;1.44;100.00;101202.19;5035876;28;19971;-76
2023/12/06 05:36:34;;;;;;;;;;;;;;;1.46;100.00;101200.53;5037776;28;20374;-75
2023/12/06 05:39:00;;;;;;;;;;;;;;;1.46;100.00;101205.69;5034059;28;19990;-76
2023/12/06 05:41:26;;;;;;;;;;;;;;;1.49;100.00;101221.28;5046768;28;20007;-76
2023/12/06 05:43:52;;;;;;;;;;;;;;;1.50;100.00;101215.31;5060050;28;20091;-76
2023/12/06 05:46:18;;;;;;;;;;;;;;;1.51;100.00;101206.72;5048030;28;19928;-76
2023/12/06 05:48:43;;;;;;;;;;;;;;;1.52;100.00;101217.13;5049074;28;20266;-76
2023/12/06 05:51:08;;;;;;;;;;;;;;;1.54;100.00;101224.91;5037283;28;19920;-76
2023/12/06 05:53:34;;;;;;;;;;;;;;;1.57;100.00;101225.00;5027128;28;20381;-76
2023/12/06 05:55:59;;;;;;;;;;;;;;;1.56;100.00;101215.47;5031584;28;19921;-75
2023/12/06 05:58:24;;;;;;;;;;;;;;;1.57;100.00;101222.41;5036272;28;19920;-75
2023/12/06 06:00:51;;;;;;;;;;;;;;;1.59;100.00;101219.88;5068168;28;19928;-76
2023/12/06 06:03:17;;;;;;;;;;;;;;;1.60;100.00;101221.63;5033734;28;19936;-76
2023/12/06 06:05:42;;;;;;;;;;;;;;;1.61;100.00;101225.94;5044966;28;19916;-76
2023/12/06 06:08:07;;;;;;;;;;;;;;;1.62;100.00;101223.41;5084523;22;20088;-75
2023/12/06 06:10:32;;;;;;;;;;;;;;;1.66;100.00;101229.56;5075948;28;20015;-76
2023/12/06 06:12:58;;;;;;;;;;;;;;;1.67;100.00;101232.19;5078942;28;20380;-76
2023/12/06 06:15:23;;;;;;;;;;;;;;;1.69;100.00;101235.69;5063391;28;19927;-75
2023/12/06 06:17:48;;;;;;;;;;;;;;;1.70;100.00;101227.13;5074633;28;19924;-75
2023/12/06 06:20:14;;;;;;;;;;;;;;;1.76;100.00;101241.06;5081356;28;19927;-75
2023/12/06 06:22:39;;;;;;;;;;;;;;;1.78;100.00;101242.88;5073044;28;20380;-75
2023/12/06 06:25:04;;;;;;;;;;;;;;;1.78;100.00;101241.97;5075572;28;20012;-76
2023/12/06 06:27:30;;;;;;;;;;;;;;;1.79;100.00;101246.31;5091565;28;19920;-76
2023/12/06 06:29:55;;;;;;;;;;;;;;;1.81;100.00;101250.72;5070546;28;19925;-77
2023/12/06 06:32:20;;;;;;;;;;;;;;;1.83;100.00;101250.75;5069553;28;19969;-76
2023/12/06 06:34:45;;;;;;;;;;;;;;;1.86;100.00;101249.13;5092792;28;19924;-77
2023/12/06 06:37:11;;;;;;;;;;;;;;;1.85;100.00;101256.84;5109031;23;19935;-74
2023/12/06 06:39:37;;;;;;;;;;;;;;;1.85;100.00;101262.91;5015167;28;20023;-75
2023/12/06 06:42:03;;;;;;;;;;;;;;;1.84;100.00;101263.72;5029158;28;19963;-75
2023/12/06 06:44:30;;;;;;;;;;;;;;;1.86;100.00;101264.63;5008810;28;20397;-75
2023/12/06 06:46:55;;;;;;;;;;;;;;;1.88;100.00;101272.44;5037306;28;19924;-75
2023/12/06 06:49:20;;;;;;;;;;;;;;;1.88;100.00;101277.59;5007417;28;19972;-75
2023/12/06 06:51:46;;;;;;;;;;;;;;;1.89;100.00;101276.78;5029668;28;19927;-74
2023/12/06 06:54:11;;;;;;;;;;;;;;;1.89;100.00;101281.94;5004034;28;19945;-75
2023/12/06 06:56:37;;;;;;;;;;;;;;;1.89;100.00;101281.94;5006894;28;19921;-78
2023/12/06 06:59:02;;;;;;;;;;;;;;;1.90;100.00;101281.13;5014654;28;19975;-75
2023/12/06 07:01:27;;;;;;;;;;;;;;;1.92;100.00;101294.97;5012095;28;20382;-75
2023/12/06 07:03:54;;;;;;;;;;;;;;;1.92;100.00;101292.38;5013860;28;20378;-76
2023/12/06 07:06:20;;;;;;;;;;;;;;;1.93;100.00;101281.22;5018608;28;19921;-75
2023/12/06 07:08:45;;;;;;;;;;;;;;;1.94;100.00;101288.16;5031072;28;19970;-76
2023/12/06 07:11:11;;;;;;;;;;;;;;;1.94;100.00;101285.56;5004861;28;20011;-76
2023/12/06 07:13:36;;;;;;;;;;;;;;;1.95;100.00;101292.47;5022822;28;19924;-76
2023/12/06 07:16:01;;;;;;;;;;;;;;;1.93;100.00;101291.56;5012890;28;19920;-75
2023/12/06 07:18:27;;;;;;;;;;;;;;;1.95;100.00;101289.88;5006004;28;19929;-76
2023/12/06 07:20:53;;;;;;;;;;;;;;;1.95;100.00;101296.78;5014719;28;20429;-76
2023/12/06 07:23:18;;;;;;;;;;;;;;;1.95;100.00;101289.03;5029553;28;19922;-75
2023/12/06 07:25:46;;;;;;;;;;;;;;;1.97;100.00;101300.28;5013801;28;19928;-75
2023/12/06 07:28:15;;;;;;;;;;;;;;;1.99;100.00;101298.63;5016265;28;20337;-75
2023/12/06 07:30:40;;;;;;;;;;;;;;;1.96;100.00;101291.66;5021823;28;20330;-76
2023/12/06 07:33:06;;;;;;;;;;;;;;;1.98;100.00;101302.03;5035686;28;20043;-75
2023/12/06 07:35:31;;;;;;;;;;;;;;;1.98;100.00;101299.44;5022695;28;19924;-75
2023/12/06 07:37:56;;;;;;;;;;;;;;;1.99;100.00;101303.78;5023565;28;20401;-75
2023/12/06 07:40:21;;;;;;;;;;;;;;;2.00;100.00;101303.84;5054193;28;19916;-75
2023/12/06 07:42:48;;;;;;;;;;;;;;;2.02;100.00;101311.63;5036595;28;19982;-75
2023/12/06 07:45:13;;;;;;;;;;;;;;;2.03;100.00;101318.56;5053896;28;19988;-75
2023/12/06 07:47:39;;;;;;;;;;;;;;;2.04;100.00;101323.78;5048584;28;19924;-75
2023/12/06 07:50:06;;;;;;;;;;;;;;;2.06;100.00;101331.59;5054241;28;19916;-75
2023/12/06 07:52:33;;;;;;;;;;;;;;;2.05;100.00;101320.38;5053705;28;19920;-75
2023/12/06 07:54:58;;;;;;;;;;;;;;;2.08;100.00;101325.66;5037310;28;19921;-75
2023/12/06 07:57:27;;;;;;;;;;;;;;;2.11;100.00;101334.31;5031717;28;19954;-75
2023/12/06 07:59:52;;;;;;;;;;;;;;;2.12;100.00;101333.50;5037613;28;20428;-76
2023/12/06 08:02:18;;;;;;;;;;;;;;;2.14;100.00;101332.72;5022722;28;19928;-75
2023/12/06 08:04:43;;;;;;;;;;;;;;;2.18;100.00;101334.53;5028064;28;19928;-76
2023/12/06 08:07:08;;;;;;;;;;;;;;;2.20;100.00;101337.19;5051953;28;19956;-75
2023/12/06 08:09:33;;;;;;;;;;;;;;;2.22;100.00;101341.56;5053913;28;19917;-75
2023/12/06 08:11:59;;;;;;;;;;;;;;;2.24;100.00;101339.91;5053382;28;20374;-75
2023/12/06 08:14:26;;;;;;;;;;;;;;;2.27;100.00;101338.25;5033915;28;19917;-75
2023/12/06 08:16:51;;;;;;;;;;;;;;;2.28;100.00;101346.03;5050133;28;20374;-75
2023/12/06 08:19:17;;;;;;;;;;;;;;;2.32;100.00;101347.91;5036821;28;20013;-75
2023/12/06 08:21:42;;;;;;;;;;;;;;;2.32;100.00;101342.72;5053481;28;19982;-75
2023/12/06 08:24:07;;;;;;;;;;;;;;;2.36;100.00;101348.88;5050226;28;20015;-75
2023/12/06 08:26:33;;;;;;;;;;;;;;;2.38;100.00;101349.78;5066096;28;19917;-75
2023/12/06 08:29:00;;;;;;;;;;;;;;;2.41;100.00;101355.94;5053435;28;19990;-75
2023/12/06 08:31:25;;;;;;;;;;;;;;;2.43;100.00;101356.84;5041251;28;19913;-76
2023/12/06 08:33:51;;;;;;;;;;;;;;;2.45;100.00;101359.47;5017014;28;20386;-75
2023/12/06 08:36:16;;;;;;;;;;;;;;;2.49;100.00;101368.22;5018046;28;20277;-76
2023/12/06 08:38:44;;;;;;;;;;;;;;;2.50;100.00;101365.69;5020102;28;19962;-75
2023/12/06 08:41:09;;;;;;;;;;;;;;;2.54;100.00;101369.22;5018783;28;19921;-75
2023/12/06 08:43:35;;;;;;;;;;;;;;;2.58;100.00;101371.06;5018942;28;19925;-75
2023/12/06 08:46:00;;;;;;;;;;;;;;;2.61;100.00;101371.16;5037182;28;19920;-75
2023/12/06 08:48:25;;;;;;;;;;;;;;;2.64;100.00;101376.41;5036050;28;19951;-76
2023/12/06 08:50:51;;;;;;;;;;;;;;;2.66;100.00;101379.94;5019559;28;20373;-75
2023/12/06 08:53:16;;;;;;;;;;;;;;;2.69;100.00;101381.75;5017638;28;19928;-76
2023/12/06 08:55:44;;;;;;;;;;;;;;;2.74;100.00;101382.75;5030490;28;20321;-75
2023/12/06 08:58:09;;;;;;;;;;;;;;;2.81;100.00;101387.28;5052996;28;19943;-76
2023/12/06 09:00:35;;;;;;;;;;;;;;;2.91;100.00;101385.81;5036462;28;19920;-75
2023/12/06 09:03:01;;;;;;;;;;;;;;;3.02;100.00;101389.59;5036335;28;19987;-75
2023/12/06 09:05:29;;;;;;;;;;;;;;;3.15;100.00;101384.75;5030286;28;19956;-75
2023/12/06 09:07:54;;;;;;;;;;;;;;;3.27;100.00;101391.13;5020227;28;20290;-75
2023/12/06 09:10:19;;;;;;;;;;;;;;;3.39;100.00;101400.97;5032282;28;19928;-75
2023/12/06 09:12:45;;;;;;;;;;;;;;;3.54;100.00;101392.72;5015011;28;19932;-75
2023/12/06 09:15:10;;;;;;;;;;;;;;;3.61;100.00;101391.16;5035901;28;19971;-75
2023/12/06 09:17:35;;;;;;;;;;;;;;;3.59;100.00;101398.00;5035969;28;20401;-75
2023/12/06 09:20:01;;;;;;;;;;;;;;;3.60;100.00;101395.44;5036143;28;19942;-75
2023/12/06 09:22:26;;;;;;;;;;;;;;;5.22;100.00;101399.94;5023738;28;19924;-76
2023/12/06 09:24:52;;;;;;;;;;;;;;;7.45;100.00;101411.03;5018270;28;20377;-76
2023/12/06 09:27:17;;;;;;;;;;;;;;;9.13;100.00;101407.84;5014262;28;19921;-76
2023/12/06 09:29:45;;;;;;;;;;;;;;;10.41;100.00;101413.19;5035178;28;20058;-77
2023/12/06 09:32:11;;;;;;;;;;;;;;;9.90;100.00;101410.59;5035454;28;20420;-76
2023/12/06 09:34:36;;;;;;;;;;;;;;;10.35;100.00;101424.56;5014835;28;19925;-76
2023/12/06 09:37:01;;;;;;;;;;;;;;;11.79;100.00;101416.94;5030120;28;19932;-77
2023/12/06 09:39:29;;;;;;;;;;;;;;;13.30;99.70;101422.38;5039065;28;19924;-77
2023/12/06 09:41:54;;;;;;;;;;;;;;;14.51;90.12;101421.31;5052251;28;20409;-78
2023/12/06 09:44:20;;;;;;;;;;;;;;;15.55;84.98;101422.69;5028912;28;19936;-77
2023/12/06 09:46:46;;;;;;;;;;;;;;;16.29;83.84;101425.31;5034380;28;19928;-77
2023/12/06 09:49:11;;;;;;;;;;;;;;;17.08;78.36;101423.16;5039373;28;20007;-78
2023/12/06 09:51:38;;;;;;;;;;;;;;;17.17;83.08;101436.13;5031726;28;19964;-77
2023/12/06 09:54:04;;;;;;;;;;;;;;;16.45;80.29;101441.66;5033233;28;20374;-77
2023/12/06 09:56:31;;;;;;;;;;;;;;;15.71;83.73;101446.09;5046938;28;19917;-78
2023/12/06 09:58:56;;;;;;;;;;;;;;;15.32;86.07;101454.91;5028499;28;19927;-78
2023/12/06 10:01:22;;;;;;;;;;;;;;;15.07;84.07;101450.16;5053690;28;19921;-78
2023/12/06 10:03:48;;;;;;;;;;;;;;;16.04;85.03;101452.38;5051472;28;20297;-78
2023/12/06 10:06:14;;;;;;;;;;;;;;;17.02;78.17;101452.47;5051414;28;19954;-78
2023/12/06 10:08:41;;;;;;;;;;;;;;;17.75;80.81;101449.34;5036065;28;19924;-77
2023/12/06 10:11:07;;;;;;;;;;;;;;;18.13;79.52;101449.03;5053147;28;20302;-78
2023/12/06 10:13:40;;;;;;;;;;;;;;;18.02;78.28;101452.06;5050365;28;19923;-78
2023/12/06 10:16:13;;;;;;;;;;;;;;;18.29;79.17;101442.28;5049123;28;20054;-77
2023/12/06 10:18:39;;;;;;;;;;;;;;;19.12;72.13;101442.88;5054704;28;20006;-78
2023/12/06 10:21:05;;;;;;;;;;;;;;;20.18;73.88;101445.78;5046194;28;20491;-77
2023/12/06 10:23:31;;;;;;;;;;;;;;;21.03;67.26;101447.41;5052375;28;19931;-79
2023/12/06 10:25:57;;;;;;;;;;;;;;;21.56;71.35;101452.03;5050494;28;19916;-78
2023/12/06 10:28:22;;;;;;;;;;;;;;;21.99;67.46;101443.72;5034807;28;19920;-78
2023/12/06 10:30:58;;;;;;;;;;;;;;;22.39;67.01;101446.19;5031067;28;19927;-78
2023/12/06 10:33:28;;;;;;;;;;;;;;;22.52;65.25;101441.09;5044413;28;19913;-78
2023/12/06 10:35:53;;;;;;;;;;;;;;;22.59;63.57;101440.66;5054453;28;19917;-78
2023/12/06 10:38:19;;;;;;;;;;;;;;;23.23;67.89;101439.94;5045677;28;19925;-78
2023/12/06 10:40:45;;;;;;;;;;;;;;;23.39;65.82;101440.84;5040142;28;20421;-78
2023/12/06 10:43:12;;;;;;;;;;;;;;;23.32;66.08;101436.78;5034705;28;19979;-78
2023/12/06 10:45:37;;;;;;;;;;;;;;;21.72;56.30;101435.28;5031454;28;19917;-78
2023/12/06 10:48:03;;;;;;;;;;;;;;;19.74;60.90;101441.38;5054410;28;19970;-78
2023/12/06 10:50:30;;;;;;;;;;;;;;;18.90;75.07;101438.38;5051877;28;19962;-77
2023/12/06 10:53:00;;;;;;;;;;;;;;;17.86;61.88;101434.88;5048000;28;20369;-77
2023/12/06 10:55:29;;;;;;;;;;;;;;;16.52;66.05;101432.66;5050135;28;19921;-77
2023/12/06 10:57:57;;;;;;;;;;;;;;;15.47;87.27;101440.47;5045450;28;20383;-77
2023/12/06 11:00:23;;;;;;;;;;;;;;;14.41;91.01;101426.78;5043780;28;19921;-77
2023/12/06 11:02:49;;;;;;;;;;;;;;;13.32;87.93;101433.75;5019074;28;19925;-77
2023/12/06 11:05:17;;;;;;;;;;;;;;;12.47;92.70;101437.38;5021822;28;20015;-77
2023/12/06 11:07:48;;;;;;;;;;;;;;;11.67;83.73;101440.63;5058988;28;19920;-76
2023/12/06 11:10:32;;;;;;;;;;;;;;;11.08;97.20;101440.09;5052041;28;19923;-76
2023/12/06 11:13:09;;;;;;;;;;;;;;;10.37;95.63;101430.69;5049379;28;19924;-76
2023/12/06 11:15:53;;;;;;;;;;;;;;;9.86;89.83;101437.66;5062010;28;19938;-76
2023/12/06 11:18:20;;;;;;;;;;;;;;;9.50;93.81;101432.34;5047802;28;20408;-76
2023/12/06 11:20:45;;;;;;;;;;;;;;;9.28;90.39;101427.94;5051813;28;19920;-76
2023/12/06 11:23:11;;;;;;;;;;;;;;;9.05;87.29;101431.38;5046463;28;20358;-76
2023/12/06 11:25:41;;;;;;;;;;;;;;;8.91;88.91;101428.69;5041589;28;20025;-76
2023/12/06 11:28:10;;;;;;;;;;;;;;;8.86;91.50;101430.38;5043721;28;20015;-75
2023/12/06 11:30:43;;;;;;;;;;;;;;;8.90;88.42;101428.69;5050003;28;20022;-75
2023/12/06 11:33:10;;;;;;;;;;;;;;;9.16;89.00;101428.78;5050654;28;19916;-76
2023/12/06 11:35:41;;;;;;;;;;;;;;;10.56;84.71;101428.91;5039032;28;19924;-76
2023/12/06 11:38:06;;;;;;;;;;;;;;;12.45;79.31;101423.38;5043877;28;19925;-77
2023/12/06 11:40:34;;;;;;;;;;;;;;;13.72;75.79;101432.34;5032479;28;20023;-76
2023/12/06 11:43:05;;;;;;;;;;;;;;;15.00;74.51;101440.63;5044045;28;20297;-77
2023/12/06 11:45:32;;;;;;;;;;;;;;;16.75;73.01;101433.78;5049445;28;19924;-76
2023/12/06 11:48:05;;;;;;;;;;;;;;;17.93;68.97;101431.13;5032559;28;19928;-77
2023/12/06 11:50:52;;;;;;;;;;;;;;;18.84;66.05;101446.56;5037830;28;20425;-77
2023/12/06 11:53:19;;;;;;;;;;;;;;;20.10;61.22;101435.47;5037655;28;19924;-77
2023/12/06 11:55:45;;;;;;;;;;;;;;;20.85;58.76;101449.13;5054054;28;20007;-77
2023/12/06 11:58:11;;;;;;;;;;;;;;;21.27;51.96;101448.06;5048420;28;19967;-77
2023/12/06 12:00:42;;;;;;;;;;;;;;;21.89;56.78;101450.47;5062795;28;19970;-78
2023/12/06 12:03:09;;;;;;;;;;;;;;;22.13;57.53;101451.03;5051910;28;19917;-77
2023/12/06 12:05:35;;;;;;;;;;;;;;;21.93;55.89;101436.88;5020645;28;19917;-78
2023/12/06 12:08:03;;;;;;;;;;;;;;;21.97;53.10;101442.94;5052909;28;19948;-77
2023/12/06 12:10:29;;;;;;;;;;;;;;;21.72;55.81;101443.28;5034256;28;20446;-78
2023/12/06 12:12:55;;;;;;;;;;;;;;;21.70;59.45;101443.38;5036873;28;19959;-77
2023/12/06 12:15:20;;;;;;;;;;;;;;;21.52;58.66;101439.81;5030398;28;20031;-77
2023/12/06 12:17:45;;;;;;;;;;;;;;;21.17;54.03;101446.78;5072803;28;19924;-77
2023/12/06 12:20:12;;;;;;;;;;;;;;;19.80;56.06;101450.91;5044892;28;20382;-76
2023/12/06 12:22:44;;;;;;;;;;;;;;;18.23;65.81;101447.81;5036968;28;20377;-77
2023/12/06 12:25:10;;;;;;;;;;;;;;;16.85;66.04;101444.97;5034442;28;19977;-77
2023/12/06 12:27:35;;;;;;;;;;;;;;;16.09;65.86;101441.69;5034913;28;19928;-77
2023/12/06 12:30:00;;;;;;;;;;;;;;;15.91;62.80;101438.59;5053828;28;19917;-76
2023/12/06 12:32:28;;;;;;;;;;;;;;;16.37;69.16;101435.69;5021878;28;19972;-77